Time;durP1;ratioP1;P1;durP2;ratioP2;P2;SDS_P1;SDS_P2;PMS_P1;PMS_P2;Temp;Humidity;BMP_temperature;BMP_pressure;BME280_temperature;BME280_humidity;BME280_pressure;Samples;Min_cycle;Max_cycle;Signal;HPM_P1;HPM_P2
2023/06/25 00:00:05;;;;;;;12.70;9.70;;;;;;;17.83;73.65;101440.66;687693;28;1223;-82
2023/06/25 00:00:39;;;;;;;13.00;10.00;;;;;;;17.78;73.76;101442.38;685508;28;982;-82
2023/06/25 00:01:00;;;;;;;13.30;10.45;;;;;;;17.87;73.76;101452.09;689650;28;1216;-82
2023/06/25 00:01:21;;;;;;;12.82;10.05;;;;;;;17.82;73.79;101449.44;690466;28;1407;-82
2023/06/25 00:01:41;;;;;;;12.60;10.10;;;;;;;17.87;73.92;101453.00;693721;28;764;-82
2023/06/25 00:02:02;;;;;;;12.70;10.10;;;;;;;17.81;73.80;101443.28;690437;28;1253;-82
2023/06/25 00:02:23;;;;;;;13.82;10.30;;;;;;;17.89;73.83;101455.66;692983;28;1174;-82
2023/06/25 00:02:43;;;;;;;13.00;9.70;;;;;;;17.87;73.88;101454.75;690948;28;1404;-82
2023/06/25 00:03:04;;;;;;;13.13;9.57;;;;;;;17.81;73.75;101443.28;685289;28;1215;-83
2023/06/25 00:03:25;;;;;;;12.02;9.70;;;;;;;17.82;73.75;101452.06;689954;28;1281;-84
2023/06/25 00:03:46;;;;;;;12.00;9.90;;;;;;;17.78;73.85;101437.97;688146;28;1073;-82
2023/06/25 00:04:06;;;;;;;11.33;9.77;;;;;;;17.83;73.78;101448.59;687769;28;1598;-83
2023/06/25 00:04:27;;;;;;;11.25;9.70;;;;;;;17.86;73.79;101450.34;685444;28;1053;-82
2023/06/25 00:04:47;;;;;;;11.30;9.70;;;;;;;17.85;73.89;101443.31;684905;28;1165;-81
2023/06/25 00:05:08;;;;;;;11.47;9.63;;;;;;;17.87;73.84;101454.75;681303;28;1297;-82
2023/06/25 00:05:29;;;;;;;11.57;9.45;;;;;;;17.78;73.88;101437.09;685581;28;1025;-82
2023/06/25 00:05:49;;;;;;;11.63;9.80;;;;;;;17.82;73.76;101449.44;687952;28;1467;-82
2023/06/25 00:06:11;;;;;;;11.88;9.98;;;;;;;17.77;73.77;101435.34;693323;28;1454;-82
2023/06/25 00:06:31;;;;;;;12.90;10.17;;;;;;;17.75;73.85;101437.94;693582;28;997;-82
2023/06/25 00:06:52;;;;;;;12.73;9.90;;;;;;;17.81;73.80;101445.94;687771;28;1299;-82
2023/06/25 00:07:12;;;;;;;12.95;9.77;;;;;;;17.75;73.88;101431.78;689900;28;1107;-82
2023/06/25 00:07:33;;;;;;;12.60;9.80;;;;;;;17.77;73.64;101438.84;688008;28;1172;-83
2023/06/25 00:07:54;;;;;;;12.93;9.95;;;;;;;17.79;73.97;101445.03;687868;28;1509;-82
2023/06/25 00:08:14;;;;;;;12.85;10.50;;;;;;;17.79;73.65;101446.78;685103;28;1194;-83
2023/06/25 00:08:35;;;;;;;13.17;10.60;;;;;;;17.75;73.49;101435.31;690245;28;1080;-83
2023/06/25 00:08:56;;;;;;;12.75;10.65;;;;;;;17.76;73.86;101445.00;685169;28;1358;-82
2023/06/25 00:09:17;;;;;;;12.93;10.30;;;;;;;17.73;73.76;101433.53;690055;28;1325;-82
2023/06/25 00:09:39;;;;;;;12.48;10.27;;;;;;;17.71;73.69;101438.81;688078;28;1199;-83
2023/06/25 00:10:00;;;;;;;12.13;10.10;;;;;;;17.80;73.32;101449.44;684928;28;1353;-82
2023/06/25 00:10:20;;;;;;;12.10;10.07;;;;;;;17.73;73.45;101446.72;688615;28;1214;-82
2023/06/25 00:10:41;;;;;;;11.32;9.82;;;;;;;17.77;73.52;101445.88;685477;28;1153;-82
2023/06/25 00:11:02;;;;;;;13.20;10.00;;;;;;;17.67;73.35;101445.81;689819;28;1167;-83
2023/06/25 00:11:22;;;;;;;13.77;9.55;;;;;;;17.71;73.36;101445.81;692408;28;1168;-82
2023/06/25 00:11:43;;;;;;;16.63;9.77;;;;;;;17.71;73.53;101446.72;690824;28;1069;-83
2023/06/25 00:12:04;;;;;;;14.77;9.60;;;;;;;17.64;73.35;101437.84;679825;29;1248;-82
2023/06/25 00:12:25;;;;;;;14.32;9.90;;;;;;;17.69;73.51;101451.09;687672;28;1402;-83
2023/06/25 00:12:45;;;;;;;11.35;9.40;;;;;;;17.66;73.48;101448.44;696381;28;1222;-82
2023/06/25 00:13:06;;;;;;;11.90;9.35;;;;;;;17.64;73.43;101445.75;690881;28;1192;-82
2023/06/25 00:13:27;;;;;;;11.43;9.13;;;;;;;17.58;73.40;101434.28;693490;28;1070;-83
2023/06/25 00:13:47;;;;;;;11.25;8.90;;;;;;;17.59;73.21;101439.56;696230;28;1213;-83
2023/06/25 00:14:08;;;;;;;10.95;9.35;;;;;;;17.64;73.45;101447.53;698708;28;1289;-83
2023/06/25 00:14:29;;;;;;;11.97;10.00;;;;;;;17.59;73.36;101436.94;693516;28;957;-82
2023/06/25 00:14:50;;;;;;;12.18;10.27;;;;;;;17.58;73.37;101434.28;693282;28;1187;-82
2023/06/25 00:15:13;;;;;;;12.13;10.23;;;;;;;17.61;73.38;101447.50;687705;28;1246;-82
2023/06/25 00:15:34;;;;;;;12.55;10.00;;;;;;;17.53;73.22;101432.47;693560;28;1363;-82
2023/06/25 00:15:55;;;;;;;12.50;9.90;;;;;;;17.54;73.43;101434.22;690621;28;1134;-82
2023/06/25 00:16:15;;;;;;;11.98;9.50;;;;;;;17.54;73.36;101443.91;691411;28;1152;-82
2023/06/25 00:16:36;;;;;;;11.50;9.43;;;;;;;17.58;73.52;101445.69;688525;28;1152;-82
2023/06/25 00:16:57;;;;;;;12.00;9.10;;;;;;;17.53;73.40;101442.16;693246;28;1175;-82
2023/06/25 00:17:19;;;;;;;12.68;9.65;;;;;;;17.47;73.27;101428.88;691336;28;1184;-82
2023/06/25 00:17:39;;;;;;;13.55;9.70;;;;;;;17.56;73.41;101438.66;685416;28;1249;-82
2023/06/25 00:18:01;;;;;;;13.43;9.80;;;;;;;17.52;73.52;101440.38;689822;28;1020;-82
2023/06/25 00:18:25;;;;;;;14.52;9.88;;;;;;;17.51;73.66;101439.50;687975;28;1226;-82
2023/06/25 00:18:47;;;;;;;13.07;9.52;;;;;;;17.52;73.61;101440.38;690734;28;1151;-83
2023/06/25 00:19:07;;;;;;;13.00;10.07;;;;;;;17.50;73.71;101443.00;682594;28;1153;-82
2023/06/25 00:19:28;;;;;;;11.70;9.50;;;;;;;17.45;73.68;101439.41;682597;28;1343;-82
2023/06/25 00:19:48;;;;;;;11.97;9.67;;;;;;;17.44;73.60;101434.16;682737;29;1131;-82
2023/06/25 00:20:10;;;;;;;12.45;9.85;;;;;;;17.45;73.61;101435.91;687970;28;1218;-82
2023/06/25 00:20:30;;;;;;;12.45;9.68;;;;;;;17.42;73.51;101431.50;688109;28;1429;-82
2023/06/25 00:20:51;;;;;;;13.30;9.90;;;;;;;17.44;73.69;101437.66;690723;28;1146;-82
2023/06/25 00:21:12;;;;;;;12.77;9.48;;;;;;;17.39;73.63;101423.53;684749;28;1450;-82
2023/06/25 00:21:34;;;;;;;12.70;9.47;;;;;;;17.39;73.47;101424.41;685006;28;1145;-82
2023/06/25 00:21:54;;;;;;;12.00;9.20;;;;;;;17.38;73.71;101429.69;684595;28;1510;-82
2023/06/25 00:22:17;;;;;;;11.90;9.40;;;;;;;17.36;73.60;101428.78;690443;28;1076;-82
2023/06/25 00:22:38;;;;;;;12.05;9.80;;;;;;;17.37;73.52;101430.53;691182;28;1456;-82
2023/06/25 00:22:59;;;;;;;13.40;9.60;;;;;;;17.37;73.78;101430.53;693065;28;923;-81
2023/06/25 00:23:19;;;;;;;13.83;9.80;;;;;;;17.39;73.63;101444.63;691904;28;1190;-82
2023/06/25 00:23:40;;;;;;;13.50;9.70;;;;;;;17.38;73.57;101432.31;690785;28;1201;-82
2023/06/25 00:24:01;;;;;;;13.13;9.68;;;;;;;17.33;73.79;101423.47;685061;28;1355;-82
2023/06/25 00:24:23;;;;;;;13.23;9.70;;;;;;;17.35;73.74;101432.28;687779;28;1248;-82
2023/06/25 00:24:44;;;;;;;13.57;9.38;;;;;;;17.29;73.72;101432.22;688209;28;901;-82
2023/06/25 00:25:05;;;;;;;13.05;9.77;;;;;;;17.32;73.77;101432.28;690151;28;1173;-83
2023/06/25 00:25:26;;;;;;;14.10;9.40;;;;;;;17.36;73.61;101432.31;690684;28;1123;-82
2023/06/25 00:25:47;;;;;;;13.40;9.60;;;;;;;17.34;73.61;101435.81;690677;28;1648;-82
2023/06/25 00:26:08;;;;;;;12.23;8.90;;;;;;;17.30;73.53;101426.97;690475;28;1064;-82
2023/06/25 00:26:30;;;;;;;10.90;9.10;;;;;;;17.31;73.52;101430.47;690281;28;1369;-82
2023/06/25 00:26:51;;;;;;;10.80;9.10;;;;;;;17.34;73.54;101430.53;687696;28;1434;-82
2023/06/25 00:27:11;;;;;;;11.00;9.32;;;;;;;17.23;73.52;101423.34;690615;28;1374;-82
2023/06/25 00:27:32;;;;;;;11.17;9.07;;;;;;;17.29;73.77;101437.50;687893;28;1099;-82
2023/06/25 00:27:57;;;;;;;11.55;9.10;;;;;;;17.24;73.60;101427.81;687024;28;1730;-82
2023/06/25 00:28:18;;;;;;;11.43;9.05;;;;;;;17.20;73.61;101427.72;688033;28;1068;-82
2023/06/25 00:28:39;;;;;;;12.55;9.25;;;;;;;17.19;73.86;101418.91;693635;28;1150;-82
2023/06/25 00:28:59;;;;;;;13.05;9.57;;;;;;;17.20;73.63;101428.59;687893;28;1137;-82
2023/06/25 00:29:20;;;;;;;13.03;9.63;;;;;;;17.22;73.75;101426.88;693233;28;1511;-82
2023/06/25 00:29:40;;;;;;;11.77;9.40;;;;;;;17.21;73.56;101421.56;693575;28;1065;-82
2023/06/25 00:30:02;;;;;;;12.10;9.10;;;;;;;17.18;73.46;101427.69;689433;28;1505;-82
2023/06/25 00:30:23;;;;;;;13.63;9.02;;;;;;;17.24;73.74;101429.53;689376;28;1253;-82
2023/06/25 00:30:44;;;;;;;12.73;8.73;;;;;;;17.15;73.73;101418.84;688153;28;1184;-82
2023/06/25 00:31:05;;;;;;;12.18;8.77;;;;;;;17.17;73.62;101418.00;685097;28;1457;-83
2023/06/25 00:31:25;;;;;;;10.90;8.73;;;;;;;17.20;73.55;101423.31;690276;28;1158;-82
2023/06/25 00:31:46;;;;;;;11.40;9.05;;;;;;;17.19;73.28;101424.19;693418;28;1035;-82
2023/06/25 00:32:07;;;;;;;11.20;9.23;;;;;;;17.18;73.66;101424.16;685282;28;1599;-82
2023/06/25 00:32:28;;;;;;;10.95;9.50;;;;;;;17.16;73.43;101421.53;687976;28;1216;-80
2023/06/25 00:32:54;;;;;;;11.68;9.88;;;;;;;17.22;73.64;101429.50;687483;28;1393;-82
2023/06/25 00:33:17;;;;;;;12.48;10.20;;;;;;;17.18;73.64;101425.06;684580;28;2065;-83
2023/06/25 00:33:41;;;;;;;12.52;10.30;;;;;;;17.18;73.65;101425.06;688153;28;784;-79
2023/06/25 00:34:02;;;;;;;12.25;9.90;;;;;;;17.18;73.73;101425.06;685706;28;1586;-82
2023/06/25 00:34:23;;;;;;;12.07;9.90;;;;;;;17.21;73.71;101424.22;687926;28;1224;-80
2023/06/25 00:34:43;;;;;;;12.35;10.00;;;;;;;17.25;73.59;101432.19;685480;28;1307;-81
2023/06/25 00:35:06;;;;;;;12.38;9.90;;;;;;;17.18;73.84;101427.69;687815;28;1156;-81
2023/06/25 00:35:38;;;;;;;12.68;9.63;;;;;;;17.18;73.94;101416.25;690816;28;1202;-81
2023/06/25 00:36:06;;;;;;;11.77;9.45;;;;;;;17.15;73.76;101414.44;686225;28;1265;-81
2023/06/25 00:36:36;;;;;;;11.77;9.90;;;;;;;17.20;73.86;101420.66;685239;28;1287;-81
2023/06/25 00:36:57;;;;;;;12.52;9.65;;;;;;;17.23;73.89;101431.28;690322;28;1365;-81
2023/06/25 00:37:18;;;;;;;12.75;9.55;;;;;;;17.18;73.96;101417.13;691673;28;1366;-83
2023/06/25 00:37:41;;;;;;;13.30;9.60;;;;;;;17.20;73.96;101423.31;690762;28;1124;-81
2023/06/25 00:38:02;;;;;;;12.48;9.82;;;;;;;17.19;73.91;101421.53;690313;28;1514;-81
2023/06/25 00:38:23;;;;;;;14.43;9.80;;;;;;;17.21;74.04;101424.22;685115;28;1253;-81
2023/06/25 00:38:44;;;;;;;13.85;9.65;;;;;;;17.15;74.11;101418.84;691364;28;1278;-81
2023/06/25 00:39:05;;;;;;;13.57;9.45;;;;;;;17.20;74.30;101427.72;689765;28;1283;-81
2023/06/25 00:39:25;;;;;;;12.10;9.60;;;;;;;17.14;73.84;101423.22;688111;28;1324;-82
2023/06/25 00:39:47;;;;;;;13.38;10.23;;;;;;;17.14;74.30;101428.50;685440;28;1156;-81
2023/06/25 00:40:10;;;;;;;12.80;10.13;;;;;;;17.09;74.26;101417.03;684159;28;1328;-81
2023/06/25 00:40:31;;;;;;;12.82;10.10;;;;;;;17.06;74.38;101417.88;685475;28;997;-81
2023/06/25 00:40:52;;;;;;;12.30;9.90;;;;;;;17.06;74.32;101422.25;682361;28;1481;-82
2023/06/25 00:41:13;;;;;;;12.52;9.93;;;;;;;17.09;74.30;101427.59;685315;28;1335;-81
2023/06/25 00:41:34;;;;;;;12.20;9.90;;;;;;;17.06;74.45;101417.00;690674;28;1172;-81
2023/06/25 00:41:58;;;;;;;16.13;10.07;;;;;;;17.06;74.56;101420.53;685688;28;1234;-81
2023/06/25 00:42:19;;;;;;;16.38;10.27;;;;;;;17.06;74.57;101424.91;689892;28;1241;-81
2023/06/25 00:42:44;;;;;;;16.30;9.68;;;;;;;17.12;74.46;101417.97;688501;28;1492;-81
2023/06/25 00:43:05;;;;;;;14.05;9.65;;;;;;;17.19;74.06;101424.19;690925;28;1103;-81
2023/06/25 00:43:25;;;;;;;14.90;9.60;;;;;;;17.18;73.86;101417.13;690467;28;1192;-82
2023/06/25 00:43:46;;;;;;;14.10;10.18;;;;;;;17.19;74.04;101421.53;691445;28;838;-81
2023/06/25 00:44:07;;;;;;;13.75;10.30;;;;;;;17.22;73.85;101420.72;687826;28;1608;-81
2023/06/25 00:44:28;;;;;;;12.75;10.18;;;;;;;17.23;74.02;101422.50;685858;28;1320;-81
2023/06/25 00:44:49;;;;;;;11.90;9.65;;;;;;;17.19;74.14;101418.00;685701;28;1262;-81
2023/06/25 00:45:13;;;;;;;11.85;9.70;;;;;;;17.24;74.01;101429.53;688649;28;1170;-81
2023/06/25 00:45:34;;;;;;;11.77;9.23;;;;;;;17.24;74.00;101430.44;691477;28;1057;-81
2023/06/25 00:45:57;;;;;;;11.90;9.07;;;;;;;17.21;74.11;101419.84;688529;28;1315;-81
2023/06/25 00:46:18;;;;;;;12.88;9.85;;;;;;;17.19;73.96;101416.28;688521;28;1039;-82
2023/06/25 00:46:39;;;;;;;13.88;10.40;;;;;;;17.22;74.05;101423.38;694058;28;1195;-81
2023/06/25 00:47:00;;;;;;;14.52;10.27;;;;;;;17.21;73.97;101414.56;696036;28;1096;-81
2023/06/25 00:47:22;;;;;;;13.40;9.80;;;;;;;17.22;74.17;101421.59;688136;28;1217;-81
2023/06/25 00:47:45;;;;;;;11.80;9.23;;;;;;;17.23;74.13;101423.34;688696;28;862;-82
2023/06/25 00:48:06;;;;;;;11.32;9.38;;;;;;;17.21;74.19;101417.19;686507;28;1425;-81
2023/06/25 00:48:27;;;;;;;13.10;9.90;;;;;;;17.21;74.11;101419.84;691031;28;1331;-81
2023/06/25 00:48:49;;;;;;;12.68;9.80;;;;;;;17.23;74.00;101426.00;691095;28;1272;-81
2023/06/25 00:49:10;;;;;;;12.70;9.85;;;;;;;17.18;74.11;101414.50;688287;28;1316;-81
2023/06/25 00:49:33;;;;;;;11.88;9.85;;;;;;;17.24;74.14;101424.25;693925;28;1306;-81
2023/06/25 00:49:54;;;;;;;13.40;10.23;;;;;;;17.22;74.24;101424.22;685606;28;1266;-81
2023/06/25 00:50:14;;;;;;;13.93;10.50;;;;;;;17.20;74.24;101419.81;691187;28;1150;-81
2023/06/25 00:50:35;;;;;;;13.38;10.40;;;;;;;17.18;74.23;101417.13;685286;28;1366;-81
2023/06/25 00:51:01;;;;;;;12.70;10.43;;;;;;;17.18;74.39;101413.59;688245;28;1149;-81
2023/06/25 00:51:27;;;;;;;12.10;10.40;;;;;;;17.25;74.78;101420.75;690204;28;1209;-81
2023/06/25 00:51:47;;;;;;;12.77;10.23;;;;;;;17.20;74.62;101412.75;683277;28;1304;-81
2023/06/25 00:52:10;;;;;;;12.40;9.63;;;;;;;17.26;74.79;101423.41;687587;28;1244;-81
2023/06/25 00:52:32;;;;;;;14.23;9.90;;;;;;;17.26;74.71;101420.78;693803;28;1268;-81
2023/06/25 00:52:56;;;;;;;14.40;10.48;;;;;;;17.25;74.73;101419.00;688137;28;1144;-81
2023/06/25 00:53:18;;;;;;;15.00;10.70;;;;;;;17.24;74.83;101419.88;684332;28;1892;-82
2023/06/25 00:53:39;;;;;;;14.57;10.95;;;;;;;17.20;74.60;101412.75;690826;28;1373;-81
2023/06/25 00:54:05;;;;;;;13.43;10.90;;;;;;;17.22;74.68;101420.72;688022;28;1519;-82
2023/06/25 00:54:26;;;;;;;12.70;11.02;;;;;;;17.22;74.72;101416.31;695272;28;1250;-81
2023/06/25 00:54:47;;;;;;;12.47;10.90;;;;;;;17.18;74.58;101406.59;694085;28;1066;-81
2023/06/25 00:55:08;;;;;;;12.10;10.40;;;;;;;17.17;74.55;101402.19;688145;28;1324;-81
2023/06/25 00:55:28;;;;;;;12.05;10.40;;;;;;;17.19;74.48;101411.00;691187;28;1370;-80
2023/06/25 00:55:51;;;;;;;12.10;10.30;;;;;;;17.19;74.61;101412.72;693831;28;1198;-81
2023/06/25 00:56:12;;;;;;;12.50;10.40;;;;;;;17.19;74.51;101410.09;690971;28;1253;-81
2023/06/25 00:56:33;;;;;;;12.45;10.02;;;;;;;17.18;74.45;101408.34;689910;28;865;-81
2023/06/25 00:56:54;;;;;;;11.82;9.80;;;;;;;17.20;74.40;101418.03;693476;28;1295;-81
2023/06/25 00:57:15;;;;;;;12.65;10.43;;;;;;;17.16;74.40;101410.97;692174;28;1137;-81
2023/06/25 00:57:36;;;;;;;12.48;10.50;;;;;;;17.15;74.32;101410.94;688560;28;913;-81
2023/06/25 00:57:57;;;;;;;12.37;10.47;;;;;;;17.15;74.42;101406.53;690056;28;1634;-81
2023/06/25 00:58:21;;;;;;;12.40;10.05;;;;;;;17.19;74.18;101418.00;689695;28;1353;-81
2023/06/25 00:58:42;;;;;;;14.05;10.27;;;;;;;17.21;74.36;101425.09;687779;28;1275;-81
2023/06/25 00:59:03;;;;;;;14.50;10.50;;;;;;;17.15;74.21;101409.19;687806;28;1185;-82
2023/06/25 00:59:24;;;;;;;16.20;11.23;;;;;;;17.13;74.15;101417.09;693368;28;1099;-82
2023/06/25 00:59:45;;;;;;;16.00;11.17;;;;;;;17.11;74.18;101413.53;690620;28;1719;-80
2023/06/25 01:00:12;;;;;;;15.63;11.25;;;;;;;17.08;74.29;101402.97;692719;28;1294;-81
2023/06/25 01:00:34;;;;;;;13.98;11.00;;;;;;;17.10;74.27;101413.53;687050;28;1553;-81
2023/06/25 01:00:59;;;;;;;12.98;10.65;;;;;;;17.12;73.97;101414.44;689562;28;1644;-81
2023/06/25 01:01:26;;;;;;;13.00;10.90;;;;;;;17.08;74.11;101412.66;690125;28;1265;-81
2023/06/25 01:01:58;;;;;;;12.45;10.60;;;;;;;17.13;74.08;101417.09;691057;28;1298;-81
2023/06/25 01:02:50;;;;;;;13.00;10.10;;;;;;;17.13;74.07;101416.19;692473;28;1216;-81
2023/06/25 01:03:26;;;;;;;13.68;10.90;;;;;;;17.11;74.13;101418.81;691370;28;1297;-81
2023/06/25 01:03:54;;;;;;;15.00;11.23;;;;;;;17.12;74.26;101415.34;685548;28;1193;-81
2023/06/25 01:04:22;;;;;;;15.52;11.88;;;;;;;17.13;74.41;101416.19;686593;28;1258;-81
2023/06/25 01:04:52;;;;;;;15.07;11.50;;;;;;;17.07;74.35;101406.47;691251;28;1093;-81
2023/06/25 01:05:17;;;;;;;12.30;10.27;;;;;;;17.16;74.46;101416.25;691085;28;1125;-81
2023/06/25 01:05:46;;;;;;;12.05;10.27;;;;;;;17.09;74.71;101410.00;688378;28;1335;-80
2023/06/25 01:06:15;;;;;;;12.38;10.60;;;;;;;17.16;74.51;101424.16;693099;28;1301;-81
2023/06/25 01:06:42;;;;;;;12.70;10.35;;;;;;;17.13;74.42;101417.09;685570;28;1140;-81
2023/06/25 01:07:10;;;;;;;13.25;10.13;;;;;;;17.15;74.71;101411.81;685302;28;1423;-81
2023/06/25 01:07:36;;;;;;;14.52;10.70;;;;;;;17.14;74.43;101415.31;688029;28;1004;-81
2023/06/25 01:08:00;;;;;;;13.45;10.60;;;;;;;17.12;74.37;101414.44;688200;28;1322;-81
2023/06/25 01:08:21;;;;;;;11.90;10.05;;;;;;;17.11;74.67;101410.91;688274;28;1937;-81
2023/06/25 01:08:50;;;;;;;12.57;10.10;;;;;;;17.08;74.65;101402.97;688658;28;1105;-81
2023/06/25 01:09:12;;;;;;;16.17;10.90;;;;;;;17.13;74.53;101410.91;687129;28;1110;-81
2023/06/25 01:09:33;;;;;;;15.93;10.85;;;;;;;17.10;74.52;101400.34;691378;28;996;-81
2023/06/25 01:09:56;;;;;;;14.10;10.43;;;;;;;17.13;74.72;101414.47;690658;28;1217;-81
2023/06/25 01:10:17;;;;;;;12.10;10.35;;;;;;;17.07;74.79;101402.94;688326;28;1309;-81
2023/06/25 01:10:38;;;;;;;11.90;10.35;;;;;;;17.12;74.83;101406.53;691252;28;1163;-81
2023/06/25 01:10:59;;;;;;;12.57;10.52;;;;;;;17.16;74.85;101421.53;691021;28;1096;-81
2023/06/25 01:11:20;;;;;;;13.98;11.20;;;;;;;17.13;74.78;101410.91;691162;28;1169;-80
2023/06/25 01:11:41;;;;;;;15.43;11.17;;;;;;;17.17;75.00;101415.38;691227;28;1253;-81
2023/06/25 01:12:03;;;;;;;15.05;11.00;;;;;;;17.14;75.24;101404.78;690722;28;1179;-81
2023/06/25 01:12:24;;;;;;;12.88;10.60;;;;;;;17.18;75.05;101409.22;690632;28;1229;-81
2023/06/25 01:12:45;;;;;;;12.73;10.52;;;;;;;17.19;75.28;101416.28;691140;28;1269;-81
2023/06/25 01:13:06;;;;;;;13.07;10.82;;;;;;;17.16;75.32;101405.69;687895;28;1390;-81
2023/06/25 01:13:27;;;;;;;12.80;10.63;;;;;;;17.19;75.30;101403.09;688369;28;1917;-81
2023/06/25 01:13:47;;;;;;;12.80;10.40;;;;;;;17.22;75.24;101413.69;685733;28;1276;-81
2023/06/25 01:14:09;;;;;;;12.02;9.77;;;;;;;17.19;75.31;101410.09;684962;28;1216;-81
2023/06/25 01:14:32;;;;;;;12.32;9.73;;;;;;;17.24;75.31;101416.34;689195;28;1540;-81
2023/06/25 01:14:53;;;;;;;12.18;9.80;;;;;;;17.21;75.03;101409.28;688053;28;1375;-81
2023/06/25 01:15:15;;;;;;;13.52;10.10;;;;;;;17.16;75.22;101400.44;686623;28;1326;-81
2023/06/25 01:15:35;;;;;;;13.85;10.02;;;;;;;17.15;75.19;101403.91;682657;28;1408;-81
2023/06/25 01:15:56;;;;;;;14.50;10.30;;;;;;;17.19;75.17;101411.00;680269;29;970;-81
2023/06/25 01:16:17;;;;;;;14.70;10.38;;;;;;;17.21;75.13;101403.09;682922;28;1582;-82
2023/06/25 01:16:38;;;;;;;14.23;10.70;;;;;;;17.25;75.18;101413.75;683882;28;994;-81
2023/06/25 01:16:59;;;;;;;13.02;10.02;;;;;;;17.28;75.12;101410.25;682675;28;1162;-81
2023/06/25 01:17:20;;;;;;;13.48;10.18;;;;;;;17.22;74.88;101389.94;686916;28;1386;-81
2023/06/25 01:17:41;;;;;;;12.98;9.40;;;;;;;17.23;74.83;101398.75;688560;28;1082;-81
2023/06/25 01:18:04;;;;;;;13.70;9.90;;;;;;;17.32;74.73;101411.16;688452;28;1595;-81
2023/06/25 01:18:25;;;;;;;13.48;10.32;;;;;;;17.29;74.85;101405.84;690732;28;1455;-81
2023/06/25 01:18:48;;;;;;;14.00;10.70;;;;;;;17.26;74.65;101406.69;688510;28;1426;-81
2023/06/25 01:19:10;;;;;;;14.70;10.93;;;;;;;17.29;74.48;101405.84;688097;28;1650;-81
2023/06/25 01:19:32;;;;;;;12.68;10.50;;;;;;;17.23;74.66;101401.41;691189;28;1236;-81
2023/06/25 01:19:53;;;;;;;12.98;10.10;;;;;;;17.29;74.47;101405.84;688063;28;1259;-81
2023/06/25 01:20:13;;;;;;;12.38;9.80;;;;;;;17.25;74.26;101405.81;689137;28;1494;-81
2023/06/25 01:20:38;;;;;;;13.13;10.53;;;;;;;17.24;74.26;101406.69;690697;28;1011;-82
2023/06/25 01:20:59;;;;;;;13.20;11.10;;;;;;;17.15;74.24;101398.63;686332;28;1185;-81
2023/06/25 01:21:23;;;;;;;13.60;10.63;;;;;;;17.16;74.45;101402.16;687326;28;2099;-81
2023/06/25 01:21:46;;;;;;;13.23;9.95;;;;;;;17.16;74.36;101405.69;690805;28;852;-81
2023/06/25 01:22:07;;;;;;;15.05;9.90;;;;;;;17.19;74.55;101418.91;685430;28;1167;-81
2023/06/25 01:22:30;;;;;;;13.57;9.90;;;;;;;17.13;74.22;101410.91;688379;28;956;-81
2023/06/25 01:22:51;;;;;;;13.00;10.00;;;;;;;17.11;74.29;101410.03;690822;28;1494;-81
2023/06/25 01:23:11;;;;;;;12.43;10.43;;;;;;;17.19;74.45;101420.66;690869;28;1220;-81
2023/06/25 01:23:32;;;;;;;12.27;10.23;;;;;;;17.11;74.26;101404.75;683082;28;1260;-81
2023/06/25 01:23:53;;;;;;;12.30;10.10;;;;;;;17.12;74.31;101409.16;680545;29;1156;-81
2023/06/25 01:24:14;;;;;;;12.30;9.80;;;;;;;17.09;74.55;101399.44;688358;28;1293;-81
2023/06/25 01:24:35;;;;;;;12.40;9.82;;;;;;;17.06;74.39;101399.44;691252;28;1111;-81
2023/06/25 01:24:57;;;;;;;12.27;10.05;;;;;;;17.12;74.23;101403.88;690837;28;1177;-81
2023/06/25 01:25:18;;;;;;;12.00;9.80;;;;;;;17.08;74.20;101407.38;692456;28;1095;-81
2023/06/25 01:25:39;;;;;;;11.70;9.68;;;;;;;17.05;74.52;101402.03;688006;28;1231;-80
2023/06/25 01:26:00;;;;;;;12.40;10.00;;;;;;;17.04;74.50;101400.28;690946;28;1200;-81
2023/06/25 01:26:20;;;;;;;12.95;10.40;;;;;;;17.08;74.73;101410.88;688309;28;1334;-81
2023/06/25 01:26:43;;;;;;;13.10;10.65;;;;;;;17.08;74.42;101407.38;688437;28;1162;-81
2023/06/25 01:27:04;;;;;;;14.00;11.07;;;;;;;17.06;74.57;101409.09;687715;28;1275;-82
2023/06/25 01:27:26;;;;;;;15.73;11.23;;;;;;;17.03;74.66;101394.09;693851;28;1213;-81
2023/06/25 01:27:47;;;;;;;16.92;10.93;;;;;;;17.06;74.75;101409.09;688421;28;1416;-81
2023/06/25 01:28:08;;;;;;;16.02;10.80;;;;;;;17.05;74.56;101404.69;685426;28;1488;-81
2023/06/25 01:28:28;;;;;;;15.90;10.60;;;;;;;16.97;74.61;101400.19;685871;28;976;-81
2023/06/25 01:28:49;;;;;;;15.50;10.85;;;;;;;17.05;74.72;101407.31;685670;28;1224;-81
2023/06/25 01:29:10;;;;;;;16.10;11.00;;;;;;;17.05;74.54;101409.94;687764;28;1464;-81
2023/06/25 01:29:34;;;;;;;14.75;11.10;;;;;;;17.03;74.50;101403.78;689893;28;1199;-81
2023/06/25 01:29:55;;;;;;;15.10;11.02;;;;;;;16.98;74.46;101401.97;687359;28;1495;-81
2023/06/25 01:30:18;;;;;;;16.45;10.75;;;;;;;16.96;74.18;101402.84;686762;28;1171;-81
2023/06/25 01:30:38;;;;;;;15.20;10.25;;;;;;;16.98;74.58;101401.09;688393;28;1327;-81
2023/06/25 01:30:59;;;;;;;13.60;9.35;;;;;;;16.96;74.29;101403.72;696398;28;1003;-81
2023/06/25 01:31:20;;;;;;;12.75;9.40;;;;;;;16.97;74.61;101404.59;692614;28;1396;-81
2023/06/25 01:31:41;;;;;;;12.80;9.75;;;;;;;16.93;74.55;101401.06;693563;28;1261;-81
2023/06/25 01:32:01;;;;;;;13.60;10.20;;;;;;;17.00;74.50;101415.19;686600;28;1425;-81
2023/06/25 01:32:23;;;;;;;12.88;9.93;;;;;;;16.92;74.58;101403.66;687524;28;1202;-81
2023/06/25 01:32:44;;;;;;;13.32;10.02;;;;;;;16.91;74.72;101400.13;692595;28;1334;-81
2023/06/25 01:33:05;;;;;;;14.95;10.35;;;;;;;16.92;74.58;101407.19;692218;28;1187;-81
2023/06/25 01:33:26;;;;;;;16.27;10.93;;;;;;;16.94;74.85;101410.72;690883;28;1914;-81
2023/06/25 01:33:47;;;;;;;15.68;10.80;;;;;;;16.88;74.58;101400.09;691284;28;1062;-81
2023/06/25 01:34:07;;;;;;;15.50;11.00;;;;;;;16.92;74.70;101412.47;687679;28;1079;-81
2023/06/25 01:34:28;;;;;;;14.57;10.90;;;;;;;16.93;74.83;101408.97;688340;28;1026;-81
2023/06/25 01:34:48;;;;;;;13.35;10.93;;;;;;;16.85;74.87;101395.66;688386;28;1295;-80
2023/06/25 01:35:10;;;;;;;13.03;11.07;;;;;;;16.95;74.99;101411.59;685607;28;1376;-80
2023/06/25 01:35:32;;;;;;;13.80;10.75;;;;;;;16.92;75.06;101401.91;688460;28;990;-81
2023/06/25 01:35:54;;;;;;;13.52;10.27;;;;;;;16.95;74.95;101401.03;687386;28;1243;-80
2023/06/25 01:36:43;;;;;;;13.13;9.77;;;;;;;17.02;74.83;101408.16;685602;28;1261;-81
2023/06/25 01:37:06;;;;;;;13.30;9.68;;;;;;;17.00;74.80;101402.00;687847;28;1475;-81
2023/06/25 01:37:28;;;;;;;13.45;9.75;;;;;;;16.95;74.83;101403.69;683136;28;1388;-81
2023/06/25 01:37:49;;;;;;;11.40;9.23;;;;;;;16.96;74.66;101398.44;691060;28;1258;-81
2023/06/25 01:38:10;;;;;;;11.07;8.93;;;;;;;16.91;74.74;101394.84;690708;28;1282;-81
2023/06/25 01:38:31;;;;;;;11.68;9.23;;;;;;;16.92;74.57;101407.19;688334;28;1198;-81
2023/06/25 01:38:52;;;;;;;12.60;9.90;;;;;;;16.96;74.66;101400.19;688172;28;1365;-81
2023/06/25 01:39:13;;;;;;;14.00;10.35;;;;;;;16.94;74.70;101400.19;691718;28;1298;-82
2023/06/25 01:39:34;;;;;;;14.75;10.80;;;;;;;16.91;74.59;101393.97;688441;28;1321;-81
2023/06/25 01:39:55;;;;;;;15.40;11.00;;;;;;;16.94;74.54;101400.19;687416;28;1119;-81
2023/06/25 01:40:16;;;;;;;15.32;10.80;;;;;;;16.87;74.59;101382.53;688331;28;1329;-81
2023/06/25 01:40:38;;;;;;;15.45;10.90;;;;;;;16.92;74.66;101396.66;691065;28;1104;-81
2023/06/25 01:40:58;;;;;;;14.98;10.98;;;;;;;16.91;74.65;101399.25;687903;28;1228;-81
2023/06/25 01:41:19;;;;;;;13.98;10.65;;;;;;;16.93;74.51;101408.97;688140;28;1249;-81
2023/06/25 01:41:40;;;;;;;14.43;10.37;;;;;;;16.85;74.66;101384.25;691236;28;732;-81
2023/06/25 01:42:01;;;;;;;14.43;10.23;;;;;;;16.89;74.70;101399.22;685447;28;1361;-81
2023/06/25 01:42:23;;;;;;;15.35;10.90;;;;;;;16.81;74.87;101388.59;692494;28;1496;-81
2023/06/25 01:42:43;;;;;;;15.02;11.48;;;;;;;16.81;74.70;101388.59;688561;28;768;-81
2023/06/25 01:43:04;;;;;;;15.20;11.63;;;;;;;16.82;74.55;101394.75;685840;28;1797;-81